createdAt,value
2023-05-17T00:01:48.660Z,98611.09
2023-05-17T00:04:17.142Z,98616.03
2023-05-17T00:06:44.780Z,98615.22
2023-05-17T00:09:11.942Z,98616.66
2023-05-17T00:11:39.057Z,98620.56
2023-05-17T00:14:06.487Z,98618.91
2023-05-17T00:16:34.272Z,98620.34
2023-05-17T00:19:01.654Z,98622.19
2023-05-17T00:21:28.701Z,98626.28
2023-05-17T00:23:55.701Z,98623.84
2023-05-17T00:26:22.934Z,98624.03
2023-05-17T00:28:49.945Z,98634.09
2023-05-17T00:31:16.943Z,98628.75
2023-05-17T00:33:44.584Z,98633.66
2023-05-17T00:36:11.763Z,98633.47
2023-05-17T00:38:38.806Z,98635.13
2023-05-17T00:41:06.275Z,98633.91
2023-05-17T00:43:33.305Z,98632.25
2023-05-17T00:46:00.347Z,98636.13
2023-05-17T00:48:29.313Z,98632.84
2023-05-17T00:50:56.994Z,98630.81
2023-05-17T00:53:24.342Z,98632.03
2023-05-17T00:55:51.790Z,98640.25
2023-05-17T00:58:19.231Z,98637.19
2023-05-17T01:00:47.341Z,98635.13
2023-05-17T01:03:15.037Z,98645.56
2023-05-17T01:05:42.359Z,98650.06
2023-05-17T01:08:09.358Z,98647.63
2023-05-17T01:10:54.732Z,98650.47
2023-05-17T01:14:08.121Z,98648.25
2023-05-17T01:16:50.724Z,98655.41
2023-05-17T01:20:06.417Z,98651.09
2023-05-17T01:23:13.595Z,98656.44
2023-05-17T01:26:10.972Z,98660.94
2023-05-17T01:28:39.117Z,98660.09
2023-05-17T01:31:07.887Z,98666.69
2023-05-17T01:33:38.839Z,98664.22
2023-05-17T01:36:08.660Z,98668.53
2023-05-17T01:38:36.125Z,98669.75
2023-05-17T01:41:16.614Z,98670.41
2023-05-17T01:44:25.117Z,98670.59
2023-05-17T01:47:02.048Z,98663.41
2023-05-17T01:49:35.500Z,98664.66
2023-05-17T01:52:14.105Z,98671.41
2023-05-17T01:55:22.141Z,98675.94
2023-05-17T01:57:54.334Z,98676.72
2023-05-17T02:00:22.934Z,98680.84
2023-05-17T02:02:50.970Z,98676.19
2023-05-17T02:05:18.480Z,98670.94
2023-05-17T02:07:45.573Z,98672.94
2023-05-17T02:10:12.943Z,98681.22
2023-05-17T02:12:44.040Z,98681.78
2023-05-17T02:15:12.078Z,98682.41
2023-05-17T02:17:40.675Z,98677.41
2023-05-17T02:20:09.621Z,98684.06
2023-05-17T02:22:37.255Z,98686.34
2023-05-17T02:25:04.503Z,98685.66
2023-05-17T02:27:31.634Z,98695.81
2023-05-17T02:30:01.905Z,98695.22
2023-05-17T02:32:29.844Z,98695.47
2023-05-17T02:34:57.341Z,98688.94
2023-05-17T02:37:24.911Z,98698.25
2023-05-17T02:39:52.327Z,98695.59
2023-05-17T02:42:19.379Z,98696.81
2023-05-17T02:44:48.462Z,98700.84
2023-05-17T02:47:15.450Z,98691.94
2023-05-17T02:49:42.846Z,98694.84
2023-05-17T02:52:10.561Z,98698.44
2023-05-17T02:54:37.986Z,98687.84
2023-05-17T02:57:05.867Z,98697.41
2023-05-17T02:59:33.300Z,98701.09
2023-05-17T03:02:00.743Z,98698.06
2023-05-17T03:04:28.389Z,98699.03
2023-05-17T03:06:56.048Z,98702.56
2023-05-17T03:09:23.752Z,98700.13
2023-05-17T03:11:52.354Z,98707.03
2023-05-17T03:14:23.934Z,98710.28
2023-05-17T03:16:51.336Z,98705.84
2023-05-17T03:19:18.955Z,98711.72
2023-05-17T03:21:46.680Z,98719.31
2023-05-17T03:24:14.076Z,98718.69
2023-05-17T03:26:41.842Z,98718.00
2023-05-17T03:29:11.114Z,98714.41
2023-05-17T03:31:41.004Z,98720.47
2023-05-17T03:34:08.108Z,98721.56
2023-05-17T03:36:36.320Z,98724.09
2023-05-17T03:39:03.794Z,98727.47
2023-05-17T03:41:32.229Z,98731.94
2023-05-17T03:44:00.182Z,98727.28
2023-05-17T03:46:27.282Z,98729.44
2023-05-17T03:48:54.943Z,98727.00
2023-05-17T03:51:22.557Z,98725.75
2023-05-17T03:53:58.769Z,98733.25
2023-05-17T03:56:27.162Z,98728.72
2023-05-17T03:58:54.855Z,98723.84
2023-05-17T04:01:23.131Z,98737.03
2023-05-17T04:03:50.653Z,98744.84
2023-05-17T04:06:20.559Z,98737.91
2023-05-17T04:08:49.952Z,98739.28
2023-05-17T04:11:23.523Z,98743.69
2023-05-17T04:13:51.636Z,98748.31
2023-05-17T04:16:19.974Z,98744.75
2023-05-17T04:18:47.687Z,98757.63
2023-05-17T04:21:14.876Z,98754.63
2023-05-17T04:23:42.086Z,98762.34
2023-05-17T04:26:09.983Z,98761.34
2023-05-17T04:28:39.270Z,98757.47
2023-05-17T04:31:10.052Z,98765.06
2023-05-17T04:33:38.331Z,98770.69
2023-05-17T04:36:08.775Z,98774.16
2023-05-17T04:38:36.661Z,98775.75
2023-05-17T04:41:06.620Z,98769.69
2023-05-17T04:43:36.836Z,98784.75
2023-05-17T04:46:07.155Z,98781.56
2023-05-17T04:48:35.087Z,98785.25
2023-05-17T04:51:04.435Z,98788.06
2023-05-17T04:53:32.469Z,98787.50
2023-05-17T04:56:04.191Z,98783.69
2023-05-17T04:58:32.012Z,98801.75
2023-05-17T05:01:00.375Z,98796.81
2023-05-17T05:03:27.778Z,98809.09
2023-05-17T05:05:55.861Z,98809.72
2023-05-17T05:08:24.149Z,98801.63
2023-05-17T05:10:52.607Z,98812.78
2023-05-17T05:13:23.153Z,98811.16
2023-05-17T05:15:51.950Z,98815.53
2023-05-17T05:18:19.146Z,98816.53
2023-05-17T05:20:49.070Z,98814.38
2023-05-17T05:23:18.841Z,98810.75
2023-05-17T05:25:48.445Z,98820.31
2023-05-17T05:28:16.082Z,98828.22
2023-05-17T05:30:44.160Z,98824.88
2023-05-17T05:33:12.875Z,98825.47
2023-05-17T05:35:40.481Z,98828.50
2023-05-17T05:38:08.163Z,98829.66
2023-05-17T05:40:36.757Z,98837.59
2023-05-17T05:43:03.842Z,98836.78
2023-05-17T05:45:32.459Z,98833.97
2023-05-17T05:48:04.274Z,98840.00
2023-05-17T05:50:32.221Z,98841.00
2023-05-17T05:53:17.503Z,98834.38
2023-05-17T05:55:50.476Z,98836.19
2023-05-17T05:58:17.945Z,98849.38
2023-05-17T06:00:46.208Z,98839.69
2023-05-17T06:03:14.555Z,98843.53
2023-05-17T06:05:42.086Z,98845.38
2023-05-17T06:08:09.320Z,98853.56
2023-05-17T06:10:36.714Z,98848.44
2023-05-17T06:13:04.130Z,98860.88
2023-05-17T06:15:31.969Z,98860.09
2023-05-17T06:17:59.566Z,98859.25
2023-05-17T06:20:27.283Z,98865.97
2023-05-17T06:22:54.493Z,98864.56
2023-05-17T06:25:22.061Z,98860.63
2023-05-17T06:27:49.023Z,98865.56
2023-05-17T06:30:16.402Z,98866.22
2023-05-17T06:32:43.544Z,98871.00
2023-05-17T06:35:11.158Z,98868.50
2023-05-17T06:37:39.251Z,98870.59
2023-05-17T06:40:16.097Z,98875.94
2023-05-17T06:42:46.959Z,98874.41
2023-05-17T06:45:14.038Z,98878.00
2023-05-17T06:47:41.355Z,98868.84
2023-05-17T06:50:09.320Z,98871.63
2023-05-17T06:52:36.782Z,98877.50
2023-05-17T06:55:04.444Z,98878.19
2023-05-17T06:57:31.814Z,98876.84
2023-05-17T06:59:58.859Z,98876.38
2023-05-17T07:02:26.365Z,98879.88
2023-05-17T07:05:02.340Z,98881.25
2023-05-17T07:07:29.804Z,98879.69
2023-05-17T07:09:56.767Z,98878.31
2023-05-17T07:12:24.166Z,98880.34
2023-05-17T07:14:51.298Z,98888.91
2023-05-17T07:17:18.748Z,98879.75
2023-05-17T07:19:46.380Z,98880.94
2023-05-17T07:22:13.423Z,98882.91
2023-05-17T07:24:40.412Z,98875.56
2023-05-17T07:27:07.894Z,98882.00
2023-05-17T07:29:34.878Z,98878.97
2023-05-17T07:32:01.941Z,98881.84
2023-05-17T07:34:30.432Z,98884.53
2023-05-17T07:36:57.900Z,98881.06
2023-05-17T07:39:28.595Z,98876.28
2023-05-17T07:41:56.056Z,98891.22
2023-05-17T07:44:23.546Z,98887.97
2023-05-17T07:46:51.035Z,98882.28
2023-05-17T07:49:18.201Z,98885.16
2023-05-17T07:51:45.644Z,98880.34
2023-05-17T07:54:29.973Z,98887.84
2023-05-17T07:56:57.662Z,98881.22
2023-05-17T07:59:25.295Z,98886.63
2023-05-17T08:01:52.923Z,98872.31
2023-05-17T08:04:20.524Z,98871.28
2023-05-17T08:06:48.446Z,98877.16
2023-05-17T08:09:16.587Z,98881.06
2023-05-17T08:11:46.564Z,98873.19
2023-05-17T08:14:15.567Z,98876.13
2023-05-17T08:16:46.846Z,98886.72
2023-05-17T08:19:14.979Z,98867.63
2023-05-17T08:21:45.238Z,98878.06
2023-05-17T08:24:13.016Z,98877.00
2023-05-17T08:26:40.530Z,98886.00
2023-05-17T08:29:07.526Z,98879.81
2023-05-17T08:31:34.952Z,98893.16
2023-05-17T08:34:03.269Z,98890.41
2023-05-17T08:36:30.502Z,98882.63
2023-05-17T08:38:57.653Z,98882.44
2023-05-17T08:41:24.598Z,98889.34
2023-05-17T08:43:52.980Z,98890.72
2023-05-17T08:46:21.962Z,98891.09
2023-05-17T08:48:53.544Z,98890.09
2023-05-17T08:51:22.122Z,98899.22
2023-05-17T08:53:50.593Z,98885.69
2023-05-17T08:56:21.748Z,98891.03
2023-05-17T08:58:56.407Z,98888.22
2023-05-17T09:01:27.025Z,98891.44
2023-05-17T09:03:56.094Z,98893.78
2023-05-17T09:06:24.394Z,98878.41
2023-05-17T09:08:55.418Z,98890.50
2023-05-17T09:11:28.526Z,98896.56
2023-05-17T09:14:01.095Z,98895.47
2023-05-17T09:16:30.194Z,98896.97
2023-05-17T09:18:58.603Z,98898.69
2023-05-17T09:21:27.609Z,98891.88
2023-05-17T09:24:05.682Z,98900.22
2023-05-17T09:26:40.306Z,98901.75
2023-05-17T09:29:15.781Z,98899.28
2023-05-17T09:31:43.680Z,98889.91
2023-05-17T09:34:11.777Z,98897.91
2023-05-17T09:36:43.568Z,98889.00
2023-05-17T09:39:13.633Z,98899.03
2023-05-17T09:41:49.904Z,98904.56
2023-05-17T09:44:17.605Z,98895.00
2023-05-17T09:46:48.149Z,98902.19
2023-05-17T09:49:18.626Z,98898.06
2023-05-17T09:51:48.739Z,98893.94
2023-05-17T09:54:17.622Z,98897.66
2023-05-17T09:56:45.277Z,98900.25
2023-05-17T09:59:17.077Z,98892.66
2023-05-17T10:01:46.149Z,98902.59
2023-05-17T10:04:14.253Z,98906.34
2023-05-17T10:06:49.579Z,98914.06
2023-05-17T10:09:22.486Z,98905.69
2023-05-17T10:11:52.733Z,98919.78
2023-05-17T10:14:27.789Z,98917.34
2023-05-17T10:16:56.281Z,98908.00
2023-05-17T10:19:25.393Z,98903.19
2023-05-17T10:21:54.667Z,98904.81
2023-05-17T10:24:22.349Z,98913.25
2023-05-17T10:26:52.810Z,98909.16
2023-05-17T10:29:21.259Z,98909.38
2023-05-17T10:31:51.221Z,98916.50
2023-05-17T10:34:20.017Z,98916.28
2023-05-17T10:36:49.575Z,98906.28
2023-05-17T10:39:16.891Z,98909.56
2023-05-17T10:41:46.893Z,98898.69
2023-05-17T10:44:16.368Z,98899.50
2023-05-17T10:46:58.528Z,98901.53
2023-05-17T10:49:33.448Z,98903.41
2023-05-17T10:52:18.968Z,98905.84
2023-05-17T10:54:49.505Z,98902.59
2023-05-17T10:57:22.238Z,98907.13
2023-05-17T11:00:01.604Z,98908.34
2023-05-17T11:02:29.244Z,98918.34
2023-05-17T11:04:57.851Z,98916.91
2023-05-17T11:07:29.655Z,98910.19
2023-05-17T11:10:14.310Z,98921.75
2023-05-17T11:12:49.412Z,98923.75
2023-05-17T11:15:17.685Z,98918.59
2023-05-17T11:17:44.579Z,98920.03
2023-05-17T11:20:32.921Z,98912.06
2023-05-17T11:23:12.739Z,98918.06
2023-05-17T11:25:40.755Z,98915.28
2023-05-17T11:28:22.474Z,98917.13
2023-05-17T11:30:54.042Z,98920.81
2023-05-17T11:33:38.381Z,98918.19
2023-05-17T11:36:15.393Z,98920.38
2023-05-17T11:38:42.941Z,98918.69
2023-05-17T11:41:26.976Z,98915.88
2023-05-17T11:43:55.333Z,98906.00
2023-05-17T11:46:24.218Z,98906.28
2023-05-17T11:48:53.187Z,98902.22
2023-05-17T11:51:23.815Z,98902.16
2023-05-17T11:53:55.464Z,98901.59
2023-05-17T11:56:35.711Z,98900.44
2023-05-17T11:59:10.317Z,98903.41
2023-05-17T12:01:46.041Z,98900.41
2023-05-17T12:04:13.354Z,98908.31
2023-05-17T12:06:41.360Z,98907.09
2023-05-17T12:09:11.215Z,98899.44
2023-05-17T12:11:39.508Z,98901.13
2023-05-17T12:14:07.315Z,98905.06
2023-05-17T12:16:40.816Z,98905.06
2023-05-17T12:19:21.182Z,98893.16
2023-05-17T12:21:49.414Z,98896.84
2023-05-17T12:24:17.185Z,98905.66
2023-05-17T12:26:45.983Z,98893.97
2023-05-17T12:29:14.802Z,98896.44
2023-05-17T12:31:50.384Z,98900.59
2023-05-17T12:34:18.623Z,98897.25
2023-05-17T12:36:46.597Z,98902.88
2023-05-17T12:39:14.509Z,98900.53
2023-05-17T12:41:42.891Z,98907.91
2023-05-17T12:44:15.524Z,98896.44
2023-05-17T12:46:44.053Z,98894.19
2023-05-17T12:49:12.354Z,98891.72
2023-05-17T12:51:46.886Z,98898.22
2023-05-17T12:54:25.366Z,98895.78
2023-05-17T12:56:53.296Z,98895.16
2023-05-17T12:59:21.213Z,98891.69
2023-05-17T13:01:51.548Z,98889.03
2023-05-17T13:04:20.904Z,98893.13
2023-05-17T13:06:51.610Z,98898.28
2023-05-17T13:09:21.833Z,98887.00
2023-05-17T13:11:56.070Z,98889.06
2023-05-17T13:14:44.502Z,98886.19
2023-05-17T13:17:27.696Z,98892.53
2023-05-17T13:19:57.791Z,98891.31
2023-05-17T13:22:25.449Z,98896.03
2023-05-17T13:24:53.089Z,98893.72
2023-05-17T13:27:20.601Z,98890.22
2023-05-17T13:29:47.587Z,98889.63
2023-05-17T13:32:14.570Z,98897.59
2023-05-17T13:34:42.256Z,98894.78
2023-05-17T13:37:11.900Z,98897.81
2023-05-17T13:39:40.979Z,98891.09
2023-05-17T13:42:08.606Z,98897.03
2023-05-17T13:44:36.240Z,98895.19
2023-05-17T13:47:03.776Z,98886.19
2023-05-17T13:49:31.206Z,98885.75
2023-05-17T13:51:58.219Z,98888.63
2023-05-17T13:54:25.604Z,98886.56
2023-05-17T13:56:53.740Z,98885.34
2023-05-17T13:59:20.866Z,98883.91
2023-05-17T14:01:47.983Z,98876.63
2023-05-17T14:04:15.041Z,98879.16
2023-05-17T14:06:42.615Z,98876.69
2023-05-17T14:09:10.403Z,98878.97
2023-05-17T14:11:38.072Z,98890.88
2023-05-17T14:14:05.613Z,98878.13
2023-05-17T14:16:33.159Z,98895.22
2023-05-17T14:19:04.259Z,98898.88
2023-05-17T14:21:32.524Z,98899.09
2023-05-17T14:24:00.261Z,98897.03
2023-05-17T14:26:27.951Z,98911.41
2023-05-17T14:28:55.037Z,98908.13
2023-05-17T14:31:22.519Z,98914.47
2023-05-17T14:33:49.983Z,98911.63
2023-05-17T14:36:17.585Z,98910.75
2023-05-17T14:38:44.997Z,98916.50
2023-05-17T14:41:12.482Z,98904.63
2023-05-17T14:43:40.121Z,98908.34
2023-05-17T14:46:07.791Z,98910.91
2023-05-17T14:48:35.015Z,98918.75
2023-05-17T14:51:03.469Z,98910.81
2023-05-17T14:53:31.081Z,98913.09
2023-05-17T14:55:58.957Z,98908.75
2023-05-17T14:58:26.385Z,98906.09
2023-05-17T15:01:04.985Z,98907.53
2023-05-17T15:03:35.044Z,98904.03
2023-05-17T15:06:06.964Z,98899.53
2023-05-17T15:08:36.122Z,98905.28
2023-05-17T15:11:03.393Z,98901.09
2023-05-17T15:13:31.152Z,98900.50
2023-05-17T15:15:58.758Z,98908.53
2023-05-17T15:18:26.291Z,98905.88
2023-05-17T15:20:53.439Z,98905.00
2023-05-17T15:23:20.981Z,98904.97
2023-05-17T15:25:48.138Z,98897.66
2023-05-17T15:28:16.030Z,98903.28
2023-05-17T15:30:43.101Z,98906.66
2023-05-17T15:33:11.173Z,98901.63
2023-05-17T15:35:44.833Z,98892.53
2023-05-17T15:38:12.537Z,98897.91
2023-05-17T15:40:39.669Z,98891.28
2023-05-17T15:43:06.729Z,98890.22
2023-05-17T15:45:34.037Z,98888.63
2023-05-17T15:48:02.270Z,98902.00
2023-05-17T15:50:29.496Z,98890.94
2023-05-17T15:52:56.528Z,98889.94
2023-05-17T15:55:23.813Z,98885.50
2023-05-17T15:57:50.978Z,98886.84
2023-05-17T16:00:18.288Z,98892.66
2023-05-17T16:02:45.365Z,98894.81
2023-05-17T16:05:12.762Z,98897.84
2023-05-17T16:07:39.866Z,98893.72
2023-05-17T16:10:07.953Z,98892.34
2023-05-17T16:12:35.105Z,98889.56
2023-05-17T16:15:02.223Z,98890.16
2023-05-17T16:17:30.477Z,98877.63
2023-05-17T16:19:57.799Z,98884.41
2023-05-17T16:22:25.252Z,98880.66
2023-05-17T16:24:57.049Z,98883.50
2023-05-17T16:27:24.496Z,98879.91
2023-05-17T16:29:51.622Z,98879.53
2023-05-17T16:32:18.770Z,98879.16
2023-05-17T16:34:45.872Z,98878.09
2023-05-17T16:37:13.259Z,98875.75
2023-05-17T16:39:40.538Z,98876.94
2023-05-17T16:42:07.628Z,98878.22
2023-05-17T16:44:35.604Z,98872.84
2023-05-17T16:47:03.843Z,98888.09
2023-05-17T16:49:31.077Z,98875.13
2023-05-17T16:51:58.170Z,98881.47
2023-05-17T16:54:28.177Z,98873.50
2023-05-17T16:56:58.084Z,98872.31
2023-05-17T16:59:25.164Z,98878.91
2023-05-17T17:01:52.286Z,98872.53
2023-05-17T17:04:19.531Z,98868.59
2023-05-17T17:06:46.976Z,98865.81
2023-05-17T17:09:14.319Z,98871.50
2023-05-17T17:11:41.766Z,98872.50
2023-05-17T17:14:09.089Z,98866.75
2023-05-17T17:16:36.292Z,98865.69
2023-05-17T17:19:06.526Z,98866.72
2023-05-17T17:21:36.782Z,98870.72
2023-05-17T17:24:07.627Z,98871.94
2023-05-17T17:26:35.547Z,98868.78
2023-05-17T17:29:08.211Z,98870.66
2023-05-17T17:31:35.565Z,98878.28
2023-05-17T17:34:02.820Z,98870.00
2023-05-17T17:36:31.172Z,98881.16
2023-05-17T17:38:58.205Z,98876.00
2023-05-17T17:41:26.174Z,98881.63
2023-05-17T17:43:53.214Z,98883.38
2023-05-17T17:46:20.449Z,98877.81
2023-05-17T17:48:47.453Z,98876.84
2023-05-17T17:51:17.663Z,98872.09
2023-05-17T17:53:44.833Z,98877.38
2023-05-17T17:56:12.072Z,98867.66
2023-05-17T17:58:39.180Z,98875.22
2023-05-17T18:01:06.319Z,98869.19
2023-05-17T18:03:33.688Z,98871.38
2023-05-17T18:06:01.239Z,98876.09
2023-05-17T18:08:28.259Z,98876.41
2023-05-17T18:10:55.880Z,98876.63
2023-05-17T18:13:23.777Z,98871.03
2023-05-17T18:15:51.235Z,98875.72
2023-05-17T18:18:18.273Z,98880.22
2023-05-17T18:20:45.545Z,98886.56
2023-05-17T18:23:12.592Z,98889.63
2023-05-17T18:25:39.622Z,98885.06
2023-05-17T18:28:08.734Z,98888.81
2023-05-17T18:30:36.483Z,98884.59
2023-05-17T18:33:04.212Z,98893.00
2023-05-17T18:35:34.348Z,98883.31
2023-05-17T18:38:01.615Z,98887.88
2023-05-17T18:40:28.958Z,98883.34
2023-05-17T18:42:56.665Z,98889.41
2023-05-17T18:45:24.222Z,98881.97
2023-05-17T18:47:51.865Z,98887.88
2023-05-17T18:50:33.931Z,98890.84
2023-05-17T18:53:01.058Z,98893.00
2023-05-17T18:55:28.785Z,98894.19
2023-05-17T18:57:56.317Z,98893.34
2023-05-17T19:00:26.428Z,98898.25
2023-05-17T19:02:53.698Z,98902.22
2023-05-17T19:05:25.128Z,98894.16
2023-05-17T19:07:55.388Z,98907.34
2023-05-17T19:10:22.914Z,98902.16
2023-05-17T19:12:50.506Z,98910.81
2023-05-17T19:15:18.013Z,98909.06
2023-05-17T19:17:48.099Z,98920.66
2023-05-17T19:20:15.365Z,98912.84
2023-05-17T19:22:45.640Z,98916.28
2023-05-17T19:25:15.968Z,98913.69
2023-05-17T19:27:46.518Z,98917.59
2023-05-17T19:30:16.754Z,98914.91
2023-05-17T19:32:56.967Z,98918.44
2023-05-17T19:35:24.966Z,98924.59
2023-05-17T19:37:52.009Z,98920.88
2023-05-17T19:40:22.082Z,98923.34
2023-05-17T19:42:49.583Z,98928.91
2023-05-17T19:45:17.386Z,98926.22
2023-05-17T19:47:44.922Z,98929.31
2023-05-17T19:50:12.334Z,98926.66
2023-05-17T19:52:39.964Z,98927.06
2023-05-17T19:55:07.446Z,98926.88
2023-05-17T19:57:34.486Z,98926.41
2023-05-17T20:00:02.423Z,98919.88
2023-05-17T20:02:31.890Z,98927.28
2023-05-17T20:05:02.209Z,98921.50
2023-05-17T20:07:30.609Z,98923.75
2023-05-17T20:09:57.713Z,98921.91
2023-05-17T20:12:25.963Z,98924.38
2023-05-17T20:14:54.112Z,98913.72
2023-05-17T20:17:21.514Z,98925.59
2023-05-17T20:19:48.722Z,98929.72
2023-05-17T20:22:15.867Z,98926.63
2023-05-17T20:24:44.644Z,98928.09
2023-05-17T20:27:12.944Z,98929.31
2023-05-17T20:29:41.161Z,98934.44
2023-05-17T20:32:08.722Z,98927.88
2023-05-17T20:34:36.810Z,98930.31
2023-05-17T20:37:04.086Z,98932.59
2023-05-17T20:39:31.528Z,98930.09
2023-05-17T20:42:01.257Z,98928.47
2023-05-17T20:44:28.499Z,98923.94
2023-05-17T20:46:56.945Z,98923.13
2023-05-17T20:49:24.061Z,98915.53
2023-05-17T20:51:51.171Z,98929.09
2023-05-17T20:54:18.401Z,98924.72
2023-05-17T20:56:45.869Z,98923.28
2023-05-17T20:59:12.936Z,98926.38
2023-05-17T21:01:41.684Z,98925.56
2023-05-17T21:04:09.430Z,98924.97
2023-05-17T21:06:36.835Z,98925.97
2023-05-17T21:09:03.968Z,98929.84
2023-05-17T21:11:31.446Z,98923.91
2023-05-17T21:13:59.851Z,98930.47
2023-05-17T21:16:27.202Z,98928.38
2023-05-17T21:18:54.740Z,98934.56
2023-05-17T21:21:21.824Z,98931.25
2023-05-17T21:23:49.194Z,98927.72
2023-05-17T21:26:16.313Z,98930.75
2023-05-17T21:28:43.774Z,98923.84
2023-05-17T21:31:10.950Z,98927.25
2023-05-17T21:33:38.124Z,98925.00
2023-05-17T21:36:05.384Z,98916.84
2023-05-17T21:38:32.406Z,98924.38
2023-05-17T21:40:59.517Z,98920.41
2023-05-17T21:43:26.602Z,98927.41
2023-05-17T21:45:54.135Z,98919.41
2023-05-17T21:48:21.193Z,98920.69
2023-05-17T21:50:49.855Z,98922.97
2023-05-17T21:53:17.313Z,98918.75
2023-05-17T21:56:00.722Z,98924.25
2023-05-17T21:58:29.813Z,98917.84
2023-05-17T22:00:57.139Z,98916.41
2023-05-17T22:03:24.914Z,98915.81
2023-05-17T22:05:52.691Z,98920.44
2023-05-17T22:08:20.353Z,98926.88
2023-05-17T22:10:47.567Z,98924.66
2023-05-17T22:13:18.304Z,98919.38
2023-05-17T22:15:45.542Z,98916.50
2023-05-17T22:18:13.857Z,98921.84
2023-05-17T22:20:41.351Z,98918.75
2023-05-17T22:23:08.444Z,98923.91
2023-05-17T22:25:36.131Z,98929.06
2023-05-17T22:28:03.645Z,98921.84
2023-05-17T22:30:31.519Z,98920.59
2023-05-17T22:32:59.130Z,98921.06
2023-05-17T22:35:26.225Z,98923.94
2023-05-17T22:37:53.816Z,98921.69
2023-05-17T22:40:21.845Z,98919.94
2023-05-17T22:42:51.479Z,98923.97
2023-05-17T22:45:18.607Z,98922.59
2023-05-17T22:47:46.930Z,98917.31
2023-05-17T22:50:15.723Z,98914.38
2023-05-17T22:52:43.264Z,98916.03
2023-05-17T22:55:11.178Z,98917.53
2023-05-17T22:57:39.164Z,98913.97
2023-05-17T23:00:09.212Z,98912.41
2023-05-17T23:02:36.595Z,98912.25
2023-05-17T23:05:04.004Z,98915.31
2023-05-17T23:07:38.367Z,98916.63
2023-05-17T23:10:08.330Z,98910.28
2023-05-17T23:12:37.154Z,98916.88
2023-05-17T23:15:06.127Z,98905.66
2023-05-17T23:17:34.143Z,98915.41
2023-05-17T23:20:09.826Z,98913.88
2023-05-17T23:22:37.891Z,98913.59
2023-05-17T23:25:06.381Z,98907.94
2023-05-17T23:27:35.699Z,98902.63
2023-05-17T23:30:04.716Z,98904.22
2023-05-17T23:32:32.788Z,98904.59
2023-05-17T23:35:06.132Z,98898.41
2023-05-17T23:37:34.047Z,98896.44
2023-05-17T23:40:01.730Z,98898.41
2023-05-17T23:42:31.985Z,98898.03
2023-05-17T23:45:00.635Z,98895.22
2023-05-17T23:47:28.193Z,98894.41
2023-05-17T23:49:56.444Z,98894.63
2023-05-17T23:52:24.521Z,98897.09
2023-05-17T23:54:52.028Z,98890.53
2023-05-17T23:57:19.374Z,98905.72
2023-05-17T23:59:46.767Z,98892.78
